createdAt,value
2018-01-15T00:00:08.687Z,1023.34
2018-01-15T00:01:08.682Z,1023.38
2018-01-15T00:03:00.856Z,1023.37
2018-01-15T00:04:00.856Z,1023.37
2018-01-15T00:05:53.023Z,1023.29
2018-01-15T00:06:53.020Z,1023.32
2018-01-15T00:08:45.194Z,1023.33
2018-01-15T00:09:45.189Z,1023.31
2018-01-15T00:11:37.407Z,1023.25
2018-01-15T00:12:37.407Z,1023.23
2018-01-15T00:14:45.898Z,1023.22
2018-01-15T00:15:45.911Z,1023.21
2018-01-15T00:17:39.106Z,1023.23
2018-01-15T00:18:39.115Z,1023.19
2018-01-15T00:20:32.255Z,1023.25
2018-01-15T00:21:32.272Z,1023.23
2018-01-15T00:23:25.428Z,1023.15
2018-01-15T00:24:25.437Z,1023.16
2018-01-15T00:26:18.564Z,1023.12
2018-01-15T00:27:18.583Z,1023.08
2018-01-15T00:29:11.748Z,1023.07
2018-01-15T00:30:11.733Z,1023.03
2018-01-15T00:32:04.976Z,1023.09
2018-01-15T00:33:04.948Z,1023.05
2018-01-15T00:34:58.219Z,1023.05
2018-01-15T00:35:58.107Z,1023.07
2018-01-15T00:37:51.263Z,1023.04
2018-01-15T00:38:51.270Z,1023.06
2018-01-15T00:40:44.413Z,1023.07
2018-01-15T00:41:44.414Z,1023.07
2018-01-15T00:43:37.552Z,1023.12
2018-01-15T00:44:37.554Z,1023.11
2018-01-15T00:46:30.706Z,1023.13
2018-01-15T00:47:30.702Z,1023.12
2018-01-15T00:49:23.862Z,1023.08
2018-01-15T00:50:23.856Z,1023.06
2018-01-15T00:52:17.005Z,1023.00
2018-01-15T00:53:17.021Z,1023.00
2018-01-15T00:55:10.202Z,1022.99
2018-01-15T00:56:10.178Z,1022.95
2018-01-15T00:58:03.325Z,1022.92
2018-01-15T00:59:03.337Z,1022.86
2018-01-15T01:00:56.514Z,1022.84
2018-01-15T01:01:56.517Z,1022.83
2018-01-15T01:03:49.651Z,1022.78
2018-01-15T01:04:49.802Z,1022.80
2018-01-15T01:06:42.841Z,1022.75
2018-01-15T01:07:42.833Z,1022.78
2018-01-15T01:09:35.970Z,1022.74
2018-01-15T01:10:35.985Z,1022.76
2018-01-15T01:12:29.154Z,1022.67
2018-01-15T01:13:29.144Z,1022.69
2018-01-15T01:15:22.293Z,1022.74
2018-01-15T01:16:22.313Z,1022.68
2018-01-15T01:18:15.785Z,1022.61
2018-01-15T01:19:15.447Z,1022.62
2018-01-15T01:21:08.921Z,1022.65
2018-01-15T01:22:08.605Z,1022.60
2018-01-15T01:24:02.106Z,1022.57
2018-01-15T01:25:01.762Z,1022.53
2018-01-15T01:26:54.919Z,1022.48
2018-01-15T01:27:54.928Z,1022.50
2018-01-15T01:29:48.429Z,1022.45
2018-01-15T01:30:48.085Z,1022.43
2018-01-15T01:32:41.582Z,1022.44
2018-01-15T01:33:41.243Z,1022.42
2018-01-15T01:35:34.372Z,1022.35
2018-01-15T01:36:34.398Z,1022.35
2018-01-15T01:38:27.555Z,1022.28
2018-01-15T01:39:27.545Z,1022.26
2018-01-15T01:41:20.692Z,1022.30
2018-01-15T01:42:20.704Z,1022.21
2018-01-15T01:44:13.892Z,1022.20
2018-01-15T01:45:13.862Z,1022.19
2018-01-15T01:47:07.008Z,1022.12
2018-01-15T01:48:07.019Z,1022.17
2018-01-15T01:50:00.237Z,1022.12
2018-01-15T01:51:00.180Z,1022.06
2018-01-15T01:52:53.348Z,1022.05
2018-01-15T01:53:53.336Z,1022.02
2018-01-15T01:55:46.532Z,1021.95
2018-01-15T01:56:46.497Z,1021.96
2018-01-15T01:58:39.655Z,1021.94
2018-01-15T01:59:39.653Z,1021.90
2018-01-15T02:01:32.812Z,1021.86
2018-01-15T02:02:32.824Z,1021.83
2018-01-15T02:04:25.990Z,1021.84
2018-01-15T02:05:25.980Z,1021.83
2018-01-15T02:07:19.129Z,1021.78
2018-01-15T02:08:19.135Z,1021.75
2018-01-15T02:10:12.288Z,1021.73
2018-01-15T02:11:12.295Z,1021.68
2018-01-15T02:13:05.453Z,1021.63
2018-01-15T02:14:05.455Z,1021.67
2018-01-15T02:15:58.609Z,1021.67
2018-01-15T02:16:58.621Z,1021.63
2018-01-15T02:18:51.778Z,1021.59
2018-01-15T02:19:51.780Z,1021.61
2018-01-15T02:21:44.912Z,1021.53
2018-01-15T02:22:44.922Z,1021.47
2018-01-15T02:24:38.093Z,1021.47
2018-01-15T02:25:38.098Z,1021.49
2018-01-15T02:27:31.239Z,1021.44
2018-01-15T02:28:31.261Z,1021.42
2018-01-15T02:30:24.412Z,1021.42
2018-01-15T02:31:24.419Z,1021.36
2018-01-15T02:33:17.577Z,1021.34
2018-01-15T02:34:17.598Z,1021.34
2018-01-15T02:36:10.711Z,1021.33
2018-01-15T02:37:10.724Z,1021.28
2018-01-15T02:39:20.242Z,1021.29
2018-01-15T02:40:20.230Z,1021.28
2018-01-15T02:42:13.382Z,1021.26
2018-01-15T02:43:13.407Z,1021.28
2018-01-15T02:45:06.549Z,1021.26
2018-01-15T02:46:06.559Z,1021.24
2018-01-15T02:47:59.716Z,1021.18
2018-01-15T02:48:59.732Z,1021.16
2018-01-15T02:50:52.886Z,1021.12
2018-01-15T02:51:52.894Z,1021.05
2018-01-15T02:53:46.047Z,1021.02
2018-01-15T02:54:46.040Z,1021.04
2018-01-15T02:56:39.208Z,1021.05
2018-01-15T02:57:39.209Z,1020.97
2018-01-15T02:59:32.368Z,1021.02
2018-01-15T03:00:32.352Z,1021.03
2018-01-15T03:02:25.514Z,1020.99
2018-01-15T03:03:25.535Z,1020.96
2018-01-15T03:05:18.718Z,1020.88
2018-01-15T03:06:18.713Z,1020.86
2018-01-15T03:08:11.845Z,1020.86
2018-01-15T03:09:11.858Z,1020.88
2018-01-15T03:11:05.005Z,1020.87
2018-01-15T03:12:04.997Z,1020.79
2018-01-15T03:13:58.142Z,1020.77
2018-01-15T03:14:58.154Z,1020.76
2018-01-15T03:16:51.335Z,1020.79
2018-01-15T03:17:51.344Z,1020.76
2018-01-15T03:19:44.469Z,1020.72
2018-01-15T03:20:44.504Z,1020.67
2018-01-15T03:22:37.649Z,1020.64
2018-01-15T03:23:37.669Z,1020.65
2018-01-15T03:25:31.120Z,1020.63
2018-01-15T03:26:30.798Z,1020.58
2018-01-15T03:28:23.962Z,1020.47
2018-01-15T03:29:23.957Z,1020.46
2018-01-15T03:31:17.131Z,1020.35
2018-01-15T03:32:17.139Z,1020.38
2018-01-15T03:34:10.289Z,1020.30
2018-01-15T03:35:10.375Z,1020.33
2018-01-15T03:37:03.429Z,1020.36
2018-01-15T03:38:03.453Z,1020.34
2018-01-15T03:39:56.595Z,1020.38
2018-01-15T03:40:56.625Z,1020.44
2018-01-15T03:42:49.778Z,1020.40
2018-01-15T03:43:49.753Z,1020.34
2018-01-15T03:45:42.915Z,1020.40
2018-01-15T03:46:42.915Z,1020.35
2018-01-15T03:48:36.093Z,1020.30
2018-01-15T03:49:36.072Z,1020.27
2018-01-15T03:51:29.223Z,1020.20
2018-01-15T03:52:29.231Z,1020.16
2018-01-15T03:54:22.412Z,1020.10
2018-01-15T03:55:22.391Z,1020.11
2018-01-15T03:57:15.588Z,1020.09
2018-01-15T03:58:15.565Z,1020.09
2018-01-15T04:00:08.717Z,1020.06
2018-01-15T04:01:08.714Z,1020.03
2018-01-15T04:03:01.874Z,1019.99
2018-01-15T04:04:01.852Z,1019.97
2018-01-15T04:05:55.034Z,1019.97
2018-01-15T04:06:55.015Z,1019.97
2018-01-15T04:08:48.273Z,1019.95
2018-01-15T04:09:48.178Z,1019.98
2018-01-15T04:11:41.343Z,1019.90
2018-01-15T04:12:41.332Z,1019.93
2018-01-15T04:14:34.503Z,1019.87
2018-01-15T04:15:34.481Z,1019.89
2018-01-15T04:17:27.635Z,1019.88
2018-01-15T04:18:27.647Z,1019.85
2018-01-15T04:20:20.833Z,1019.85
2018-01-15T04:21:20.813Z,1019.81
2018-01-15T04:23:13.986Z,1019.88
2018-01-15T04:24:13.984Z,1019.85
2018-01-15T04:26:07.119Z,1019.82
2018-01-15T04:27:07.123Z,1019.72
2018-01-15T04:29:00.276Z,1019.70
2018-01-15T04:30:00.291Z,1019.74
2018-01-15T04:31:53.442Z,1019.77
2018-01-15T04:32:53.444Z,1019.67
2018-01-15T04:34:46.616Z,1019.67
2018-01-15T04:35:46.616Z,1019.60
2018-01-15T04:37:39.821Z,1019.56
2018-01-15T04:38:39.822Z,1019.52
2018-01-15T04:40:32.954Z,1019.52
2018-01-15T04:41:33.003Z,1019.48
2018-01-15T04:43:26.142Z,1019.41
2018-01-15T04:44:26.140Z,1019.44
2018-01-15T04:46:19.274Z,1019.44
2018-01-15T04:47:19.290Z,1019.46
2018-01-15T04:49:12.546Z,1019.42
2018-01-15T04:50:12.529Z,1019.41
2018-01-15T04:52:05.699Z,1019.36
2018-01-15T04:53:05.720Z,1019.33
2018-01-15T04:54:58.891Z,1019.27
2018-01-15T04:55:58.890Z,1019.27
2018-01-15T04:57:52.038Z,1019.20
2018-01-15T04:58:52.032Z,1019.22
2018-01-15T05:00:45.214Z,1019.15
2018-01-15T05:01:45.213Z,1019.17
2018-01-15T05:03:38.345Z,1019.09
2018-01-15T05:04:38.365Z,1019.12
2018-01-15T05:06:31.519Z,1019.08
2018-01-15T05:07:31.524Z,1019.07
2018-01-15T05:09:24.699Z,1019.07
2018-01-15T05:10:24.671Z,1019.08
2018-01-15T05:12:17.823Z,1019.10
2018-01-15T05:13:17.829Z,1019.09
2018-01-15T05:15:11.017Z,1019.02
2018-01-15T05:16:10.994Z,1019.03
2018-01-15T05:18:04.143Z,1018.94
2018-01-15T05:19:04.152Z,1018.93
2018-01-15T05:20:57.323Z,1018.88
2018-01-15T05:21:57.314Z,1018.91
2018-01-15T05:23:50.469Z,1018.86
2018-01-15T05:24:50.487Z,1018.86
2018-01-15T05:26:43.650Z,1018.89
2018-01-15T05:27:43.639Z,1018.90
2018-01-15T05:29:36.820Z,1018.81
2018-01-15T05:30:36.815Z,1018.81
2018-01-15T05:32:45.338Z,1018.82
2018-01-15T05:33:45.344Z,1018.79
2018-01-15T05:35:38.514Z,1018.79
2018-01-15T05:36:38.477Z,1018.73
2018-01-15T05:38:31.729Z,1018.73
2018-01-15T05:39:31.741Z,1018.70
2018-01-15T05:41:23.929Z,1018.70
2018-01-15T05:42:23.905Z,1018.70
2018-01-15T05:44:16.164Z,1018.66
2018-01-15T05:45:16.136Z,1018.66
2018-01-15T05:47:09.482Z,1018.61
2018-01-15T05:48:09.311Z,1018.61
2018-01-15T05:50:02.489Z,1018.61
2018-01-15T05:51:02.512Z,1018.61
2018-01-15T05:52:54.935Z,1018.63
2018-01-15T05:53:54.696Z,1018.65
2018-01-15T05:55:47.850Z,1018.59
2018-01-15T05:56:47.836Z,1018.61
2018-01-15T05:58:41.012Z,1018.53
2018-01-15T05:59:41.014Z,1018.54
2018-01-15T06:01:34.167Z,1018.58
2018-01-15T06:02:34.166Z,1018.54
2018-01-15T06:04:26.409Z,1018.52
2018-01-15T06:05:26.414Z,1018.52
2018-01-15T06:07:18.571Z,1018.49
2018-01-15T06:08:18.578Z,1018.54
2018-01-15T06:10:11.041Z,1018.52
2018-01-15T06:11:10.785Z,1018.50
2018-01-15T06:13:03.957Z,1018.51
2018-01-15T06:14:03.961Z,1018.41
2018-01-15T06:15:56.182Z,1018.42
2018-01-15T06:16:56.189Z,1018.40
2018-01-15T06:18:48.421Z,1018.37
2018-01-15T06:19:48.419Z,1018.39
2018-01-15T06:21:40.588Z,1018.31
2018-01-15T06:22:40.564Z,1018.37
2018-01-15T06:24:33.712Z,1018.33
2018-01-15T06:25:33.724Z,1018.26
2018-01-15T06:27:26.870Z,1018.31
2018-01-15T06:28:26.865Z,1018.26
2018-01-15T06:30:20.030Z,1018.23
2018-01-15T06:31:20.027Z,1018.21
2018-01-15T06:33:13.198Z,1018.25
2018-01-15T06:34:13.202Z,1018.20
2018-01-15T06:36:06.345Z,1018.23
2018-01-15T06:37:06.364Z,1018.18
2018-01-15T06:38:59.509Z,1018.19
2018-01-15T06:39:59.508Z,1018.23
2018-01-15T06:41:52.682Z,1018.20
2018-01-15T06:42:52.679Z,1018.16
2018-01-15T06:44:45.834Z,1018.18
2018-01-15T06:45:45.840Z,1018.15
2018-01-15T06:47:38.993Z,1018.13
2018-01-15T06:48:38.996Z,1018.09
2018-01-15T06:50:32.154Z,1018.12
2018-01-15T06:51:32.167Z,1018.09
2018-01-15T06:53:25.335Z,1018.06
2018-01-15T06:54:25.320Z,1018.07
2018-01-15T06:56:18.470Z,1018.09
2018-01-15T06:57:18.497Z,1018.06
2018-01-15T06:59:11.639Z,1018.03
2018-01-15T07:00:11.645Z,1018.01
2018-01-15T07:02:04.798Z,1018.00
2018-01-15T07:03:04.801Z,1018.02
2018-01-15T07:04:57.954Z,1017.97
2018-01-15T07:05:57.965Z,1017.92
2018-01-15T07:07:51.135Z,1017.93
2018-01-15T07:08:51.148Z,1017.90
2018-01-15T07:10:44.317Z,1017.98
2018-01-15T07:11:44.340Z,1017.94
2018-01-15T07:13:36.551Z,1017.94
2018-01-15T07:14:36.482Z,1017.96
2018-01-15T07:16:29.631Z,1017.89
2018-01-15T07:17:29.625Z,1017.85
2018-01-15T07:19:22.764Z,1017.84
2018-01-15T07:20:22.773Z,1017.82
2018-01-15T07:22:15.277Z,1017.83
2018-01-15T07:23:14.944Z,1017.78
2018-01-15T07:25:08.089Z,1017.69
2018-01-15T07:26:08.095Z,1017.69
2018-01-15T07:28:01.255Z,1017.67
2018-01-15T07:29:01.268Z,1017.61
2018-01-15T07:30:54.402Z,1017.64
2018-01-15T07:31:54.419Z,1017.60
2018-01-15T07:33:47.554Z,1017.59
2018-01-15T07:34:47.547Z,1017.55
2018-01-15T07:36:40.725Z,1017.58
2018-01-15T07:37:40.713Z,1017.61
2018-01-15T07:39:33.885Z,1017.57
2018-01-15T07:40:33.868Z,1017.57
2018-01-15T07:42:27.169Z,1017.58
2018-01-15T07:43:27.039Z,1017.55
2018-01-15T07:45:20.266Z,1017.59
2018-01-15T07:46:20.251Z,1017.59
2018-01-15T07:48:13.710Z,1017.51
2018-01-15T07:49:13.354Z,1017.56
2018-01-15T07:51:06.501Z,1017.56
2018-01-15T07:52:06.499Z,1017.55
2018-01-15T07:53:59.680Z,1017.54
2018-01-15T07:54:59.672Z,1017.45
2018-01-15T07:56:52.834Z,1017.49
2018-01-15T07:57:52.834Z,1017.44
2018-01-15T07:59:45.966Z,1017.39
2018-01-15T08:00:45.974Z,1017.39
2018-01-15T08:02:38.218Z,1017.40
2018-01-15T08:03:38.205Z,1017.36
2018-01-15T08:05:31.357Z,1017.31
2018-01-15T08:06:31.362Z,1017.33
2018-01-15T08:08:24.522Z,1017.20
2018-01-15T08:09:24.565Z,1017.25
2018-01-15T08:11:17.674Z,1017.16
2018-01-15T08:12:17.684Z,1017.17
2018-01-15T08:14:10.837Z,1017.17
2018-01-15T08:15:10.842Z,1017.16
2018-01-15T08:17:04.091Z,1017.12
2018-01-15T08:18:04.004Z,1017.07
2018-01-15T08:19:56.342Z,1017.08
2018-01-15T08:20:56.353Z,1017.03
2018-01-15T08:22:49.500Z,1017.02
2018-01-15T08:23:49.505Z,1017.02
2018-01-15T08:25:42.657Z,1017.03
2018-01-15T08:26:42.670Z,1017.04
2018-01-15T08:28:35.836Z,1016.99
2018-01-15T08:29:35.828Z,1017.01
2018-01-15T08:31:29.000Z,1016.96
2018-01-15T08:32:29.003Z,1016.93
2018-01-15T08:34:21.231Z,1016.94
2018-01-15T08:35:21.223Z,1016.86
2018-01-15T08:37:29.780Z,1016.84
2018-01-15T08:38:29.759Z,1016.84
2018-01-15T08:40:22.911Z,1016.83
2018-01-15T08:41:22.910Z,1016.83
2018-01-15T08:43:16.167Z,1016.77
2018-01-15T08:44:16.085Z,1016.82
2018-01-15T08:46:09.222Z,1016.78
2018-01-15T08:47:09.225Z,1016.76
2018-01-15T08:49:02.497Z,1016.67
2018-01-15T08:50:02.405Z,1016.67
2018-01-15T08:51:55.533Z,1016.66
2018-01-15T08:52:55.558Z,1016.66
2018-01-15T08:54:59.557Z,1016.68
2018-01-15T08:55:59.467Z,1016.67
2018-01-15T08:57:52.608Z,1016.65
2018-01-15T08:58:52.622Z,1016.64
2018-01-15T09:00:45.785Z,1016.70
2018-01-15T09:01:45.784Z,1016.61
2018-01-15T09:03:38.933Z,1016.53
2018-01-15T09:04:38.937Z,1016.52
2018-01-15T09:06:32.100Z,1016.55
2018-01-15T09:07:32.105Z,1016.49
2018-01-15T09:09:25.263Z,1016.54
2018-01-15T09:10:25.272Z,1016.50
2018-01-15T09:12:18.755Z,1016.44
2018-01-15T09:13:19.160Z,1016.46
2018-01-15T09:15:11.960Z,1016.41
2018-01-15T09:16:11.644Z,1016.42
2018-01-15T09:18:04.803Z,1016.34
2018-01-15T09:19:04.821Z,1016.30
2018-01-15T09:20:58.022Z,1016.20
2018-01-15T09:21:57.973Z,1016.15
2018-01-15T09:23:51.128Z,1016.16
2018-01-15T09:24:51.131Z,1016.14
2018-01-15T09:26:44.282Z,1016.18
2018-01-15T09:27:44.295Z,1016.15
2018-01-15T09:29:37.477Z,1016.18
2018-01-15T09:30:37.465Z,1016.19
2018-01-15T09:32:30.625Z,1016.07
2018-01-15T09:33:30.625Z,1016.10
2018-01-15T09:35:23.762Z,1016.11
2018-01-15T09:36:23.779Z,1016.03
2018-01-15T09:38:16.961Z,1016.05
2018-01-15T09:39:16.940Z,1016.05
2018-01-15T09:41:10.091Z,1015.97
2018-01-15T09:42:10.089Z,1015.97
2018-01-15T09:44:03.283Z,1016.02
2018-01-15T09:45:03.286Z,1015.99
2018-01-15T09:46:56.438Z,1015.99
2018-01-15T09:47:56.427Z,1016.00
2018-01-15T09:49:49.598Z,1015.88
2018-01-15T09:50:49.574Z,1015.92
2018-01-15T09:52:43.063Z,1015.79
2018-01-15T09:53:42.747Z,1015.89
2018-01-15T09:55:35.905Z,1015.81
2018-01-15T09:56:35.925Z,1015.75
2018-01-15T09:58:29.416Z,1015.72
2018-01-15T09:59:29.087Z,1015.68
2018-01-15T10:01:22.220Z,1015.60
2018-01-15T10:02:22.253Z,1015.63
2018-01-15T10:04:15.398Z,1015.52
2018-01-15T10:05:15.409Z,1015.53
2018-01-15T10:07:08.867Z,1015.44
2018-01-15T10:08:08.547Z,1015.45
2018-01-15T10:10:01.721Z,1015.34
2018-01-15T10:11:01.730Z,1015.38
2018-01-15T10:12:54.913Z,1015.38
2018-01-15T10:13:54.919Z,1015.23
2018-01-15T10:15:48.059Z,1015.31
2018-01-15T10:16:48.162Z,1015.21
2018-01-15T10:18:41.235Z,1015.18
2018-01-15T10:19:41.236Z,1015.17
2018-01-15T10:21:34.390Z,1015.22
2018-01-15T10:22:34.402Z,1015.12
2018-01-15T10:24:27.587Z,1015.08
2018-01-15T10:25:27.560Z,1015.04
2018-01-15T10:27:20.693Z,1014.95
2018-01-15T10:28:20.724Z,1014.90
2018-01-15T10:30:13.872Z,1014.88
2018-01-15T10:38:02.030Z,1014.67
2018-01-15T10:39:02.001Z,1014.65
2018-01-15T10:40:55.180Z,1014.53
2018-01-15T10:41:55.181Z,1014.56
2018-01-15T10:43:48.348Z,1014.54
2018-01-15T10:44:48.346Z,1014.56
2018-01-15T10:46:40.579Z,1014.52
2018-01-15T10:47:40.584Z,1014.58
2018-01-15T10:49:33.718Z,1014.49
2018-01-15T10:50:33.726Z,1014.52
2018-01-15T10:52:25.910Z,1014.46
2018-01-15T10:53:25.906Z,1014.40
2018-01-15T10:55:19.036Z,1014.38
2018-01-15T10:56:19.040Z,1014.34
2018-01-15T10:58:12.203Z,1014.23
2018-01-15T10:59:12.208Z,1014.20
2018-01-15T11:01:05.357Z,1014.15
2018-01-15T11:02:05.363Z,1014.07
2018-01-15T11:03:57.598Z,1014.06
2018-01-15T11:04:57.575Z,1014.05
2018-01-15T11:06:49.923Z,1013.98
2018-01-15T11:07:49.925Z,1013.90
2018-01-15T11:09:43.101Z,1013.88
2018-01-15T11:10:43.108Z,1013.93
2018-01-15T11:12:36.277Z,1013.79
2018-01-15T11:13:36.268Z,1013.76
2018-01-15T11:15:29.433Z,1013.77
2018-01-15T11:16:29.440Z,1013.78
2018-01-15T11:18:21.671Z,1013.73
2018-01-15T11:19:21.667Z,1013.66
2018-01-15T11:21:14.818Z,1013.66
2018-01-15T11:22:14.828Z,1013.65
2018-01-15T11:24:07.994Z,1013.47
2018-01-15T11:25:08.006Z,1013.54
2018-01-15T11:27:01.145Z,1013.46
2018-01-15T11:28:01.157Z,1013.54
2018-01-15T11:29:54.309Z,1013.54
2018-01-15T11:30:54.343Z,1013.42
2018-01-15T11:32:46.547Z,1013.38
2018-01-15T11:33:46.558Z,1013.42
2018-01-15T11:35:39.714Z,1013.33
2018-01-15T11:36:39.722Z,1013.34
2018-01-15T11:38:32.969Z,1013.27
2018-01-15T11:39:32.985Z,1013.28
2018-01-15T11:41:26.202Z,1013.18
2018-01-15T11:42:26.205Z,1013.20
2018-01-15T11:44:19.341Z,1013.11
2018-01-15T11:45:19.351Z,1013.04
2018-01-15T11:47:23.303Z,1013.07
2018-01-15T11:48:23.303Z,1013.03
2018-01-15T11:50:16.438Z,1013.01
2018-01-15T11:51:16.451Z,1012.96
2018-01-15T11:53:09.621Z,1012.89
2018-01-15T11:54:09.604Z,1012.89
2018-01-15T11:56:02.754Z,1012.76
2018-01-15T11:57:02.768Z,1012.76
2018-01-15T11:58:55.933Z,1012.61
2018-01-15T11:59:55.947Z,1012.67
2018-01-15T12:01:49.077Z,1012.59
2018-01-15T12:02:49.104Z,1012.62
2018-01-15T12:04:42.361Z,1012.63
2018-01-15T12:05:42.255Z,1012.56
2018-01-15T12:07:35.402Z,1012.60
2018-01-15T12:08:35.412Z,1012.66
2018-01-15T12:10:28.615Z,1012.62
2018-01-15T12:11:28.590Z,1012.57
2018-01-15T12:13:21.807Z,1012.55
2018-01-15T12:14:21.829Z,1012.44
2018-01-15T12:16:14.986Z,1012.39
2018-01-15T12:17:15.003Z,1012.31
2018-01-15T12:19:08.143Z,1012.23
2018-01-15T12:20:08.156Z,1012.27
2018-01-15T12:22:01.301Z,1012.21
2018-01-15T12:23:01.351Z,1012.23
2018-01-15T12:24:54.499Z,1012.05
2018-01-15T12:25:54.501Z,1012.01
2018-01-15T12:27:47.697Z,1012.02
2018-01-15T12:28:47.723Z,1011.92
2018-01-15T12:30:40.915Z,1012.02
2018-01-15T12:31:40.911Z,1011.93
2018-01-15T12:33:34.054Z,1011.81
2018-01-15T12:34:34.089Z,1011.74
2018-01-15T12:36:27.307Z,1011.66
2018-01-15T12:37:27.322Z,1011.61
2018-01-15T12:39:20.458Z,1011.57
2018-01-15T12:40:20.470Z,1011.55
2018-01-15T12:42:13.616Z,1011.61
2018-01-15T12:43:13.636Z,1011.55
2018-01-15T12:45:06.777Z,1011.50
2018-01-15T12:46:06.796Z,1011.44
2018-01-15T12:47:59.975Z,1011.45
2018-01-15T12:48:59.981Z,1011.44
2018-01-15T12:50:53.168Z,1011.40
2018-01-15T12:51:53.171Z,1011.41
2018-01-15T12:53:46.365Z,1011.33
2018-01-15T12:54:46.352Z,1011.35
2018-01-15T12:56:39.489Z,1011.28
2018-01-15T12:57:39.518Z,1011.23
2018-01-15T12:59:32.661Z,1011.14
2018-01-15T13:00:32.670Z,1011.13
2018-01-15T13:02:25.798Z,1011.13
2018-01-15T13:03:25.811Z,1011.21
2018-01-15T13:05:18.983Z,1011.15
2018-01-15T13:06:18.990Z,1011.14
2018-01-15T13:08:29.952Z,1011.00
2018-01-15T13:09:30.017Z,1011.02
2018-01-15T13:11:22.148Z,1010.95
2018-01-15T13:12:22.136Z,1010.91
2018-01-15T13:14:15.318Z,1010.78
2018-01-15T13:15:15.309Z,1010.75
2018-01-15T13:17:07.487Z,1010.72
2018-01-15T13:18:07.514Z,1010.58
2018-01-15T13:20:00.812Z,1010.57
2018-01-15T13:21:00.800Z,1010.51
2018-01-15T13:22:53.026Z,1010.60
2018-01-15T13:23:53.036Z,1010.57
2018-01-15T13:25:46.212Z,1010.56
2018-01-15T13:26:46.193Z,1010.55
2018-01-15T13:28:39.351Z,1010.63
2018-01-15T13:29:39.377Z,1010.53
2018-01-15T13:31:32.530Z,1010.44
2018-01-15T13:32:32.537Z,1010.60
2018-01-15T13:34:25.680Z,1010.62
2018-01-15T13:35:25.687Z,1010.64
2018-01-15T13:37:18.847Z,1010.60
2018-01-15T13:38:18.840Z,1010.55
2018-01-15T13:40:12.015Z,1010.54
2018-01-15T13:41:12.028Z,1010.54
2018-01-15T13:43:05.145Z,1010.48
2018-01-15T13:44:05.155Z,1010.49
2018-01-15T13:45:57.367Z,1010.42
2018-01-15T13:46:57.371Z,1010.32
2018-01-15T13:48:50.548Z,1010.35
2018-01-15T13:49:50.583Z,1010.23
2018-01-15T13:51:42.744Z,1010.23
2018-01-15T13:52:42.729Z,1010.20
2018-01-15T13:54:35.946Z,1010.09
2018-01-15T13:55:35.964Z,1010.10
2018-01-15T13:57:28.143Z,1010.06
2018-01-15T13:58:28.150Z,1009.99
2018-01-15T14:00:21.376Z,1009.97
2018-01-15T14:01:21.377Z,1010.01
2018-01-15T14:03:14.527Z,1009.96
2018-01-15T14:04:14.550Z,1010.01
2018-01-15T14:06:07.685Z,1009.93
2018-01-15T14:07:07.691Z,1009.90
2018-01-15T14:08:59.875Z,1009.94
2018-01-15T14:09:59.915Z,1009.89
2018-01-15T14:11:53.089Z,1009.87
2018-01-15T14:12:53.083Z,1009.82
2018-01-15T14:14:59.567Z,1009.83
2018-01-15T14:15:59.573Z,1009.78
2018-01-15T14:17:52.808Z,1009.72
2018-01-15T14:18:52.793Z,1009.66
2018-01-15T14:20:45.959Z,1009.62
2018-01-15T14:21:45.991Z,1009.60
2018-01-15T14:23:38.194Z,1009.58
2018-01-15T14:24:38.155Z,1009.53
2018-01-15T14:26:30.360Z,1009.51
2018-01-15T14:27:30.363Z,1009.52
2018-01-15T14:29:23.505Z,1009.48
2018-01-15T14:30:23.527Z,1009.50
2018-01-15T14:32:16.663Z,1009.54
2018-01-15T14:33:16.672Z,1009.43
2018-01-15T14:35:09.825Z,1009.39
2018-01-15T14:36:09.878Z,1009.33
2018-01-15T14:38:13.782Z,1009.29
2018-01-15T14:39:13.708Z,1009.19
2018-01-15T14:41:05.869Z,1009.14
2018-01-15T14:42:05.874Z,1009.15
2018-01-15T14:44:09.730Z,1009.13
2018-01-15T14:45:09.772Z,1009.10
2018-01-15T14:47:02.044Z,1009.07
2018-01-15T14:48:02.016Z,1009.05
2018-01-15T14:49:54.232Z,1008.95
2018-01-15T14:50:54.219Z,1008.91
2018-01-15T14:52:47.393Z,1008.96
2018-01-15T14:53:47.384Z,1008.94
2018-01-15T14:55:39.538Z,1008.86
2018-01-15T14:56:39.532Z,1008.88
2018-01-15T14:58:32.694Z,1008.84
2018-01-15T14:59:32.724Z,1008.83
2018-01-15T15:01:25.870Z,1008.74
2018-01-15T15:02:25.834Z,1008.72
2018-01-15T15:04:19.006Z,1008.69
2018-01-15T15:05:19.017Z,1008.60
2018-01-15T15:07:24.572Z,1008.57
2018-01-15T15:08:24.565Z,1008.54
2018-01-15T15:10:17.779Z,1008.55
2018-01-15T15:11:17.760Z,1008.54
2018-01-15T15:13:11.068Z,1008.44
2018-01-15T15:14:10.946Z,1008.47
2018-01-15T15:16:04.102Z,1008.44
2018-01-15T15:17:04.081Z,1008.37
2018-01-15T15:18:57.224Z,1008.33
2018-01-15T15:19:57.234Z,1008.29
2018-01-15T15:21:50.390Z,1008.31
2018-01-15T15:22:50.395Z,1008.29
2018-01-15T15:24:43.548Z,1008.15
2018-01-15T15:25:43.557Z,1008.12
2018-01-15T15:27:36.729Z,1008.11
2018-01-15T15:28:36.730Z,1008.06
2018-01-15T15:30:29.866Z,1008.00
2018-01-15T15:31:29.882Z,1008.02
2018-01-15T15:33:23.090Z,1007.95
2018-01-15T15:34:23.106Z,1007.93
2018-01-15T15:36:16.247Z,1007.80
2018-01-15T15:37:16.268Z,1007.71
2018-01-15T15:39:09.432Z,1007.68
2018-01-15T15:40:09.413Z,1007.62
2018-01-15T15:42:02.582Z,1007.62
2018-01-15T15:43:02.616Z,1007.62
2018-01-15T15:44:55.719Z,1007.64
2018-01-15T15:45:55.745Z,1007.60
2018-01-15T15:47:48.886Z,1007.55
2018-01-15T15:48:48.903Z,1007.52
2018-01-15T15:50:42.040Z,1007.46
2018-01-15T15:51:42.068Z,1007.42
2018-01-15T15:53:35.227Z,1007.23
2018-01-15T15:54:35.234Z,1007.39
2018-01-15T15:56:28.418Z,1007.40
2018-01-15T15:57:28.424Z,1007.35
2018-01-15T15:59:20.625Z,1007.31
2018-01-15T16:00:20.627Z,1007.31
2018-01-15T16:02:12.816Z,1007.19
2018-01-15T16:03:12.817Z,1007.10
2018-01-15T16:05:05.014Z,1007.01
2018-01-15T16:06:05.010Z,1006.99
2018-01-15T16:07:58.193Z,1006.99
2018-01-15T16:08:58.210Z,1007.00
2018-01-15T16:10:51.378Z,1006.92
2018-01-15T16:11:51.376Z,1006.88
2018-01-15T16:13:43.580Z,1006.83
2018-01-15T16:14:43.606Z,1006.85
2018-01-15T16:16:36.762Z,1006.82
2018-01-15T16:17:36.761Z,1006.76
2018-01-15T16:19:29.909Z,1006.65
2018-01-15T16:20:29.917Z,1006.61
2018-01-15T16:22:23.137Z,1006.59
2018-01-15T16:23:23.088Z,1006.54
2018-01-15T16:25:15.265Z,1006.52
2018-01-15T16:26:15.275Z,1006.53
2018-01-15T16:28:07.470Z,1006.47
2018-01-15T16:29:07.468Z,1006.46
2018-01-15T16:30:59.643Z,1006.42
2018-01-15T16:31:59.648Z,1006.42
2018-01-15T16:33:52.849Z,1006.35
2018-01-15T16:34:52.846Z,1006.29
2018-01-15T16:36:46.053Z,1006.28
2018-01-15T16:37:46.017Z,1006.28
2018-01-15T16:39:38.550Z,1006.35
2018-01-15T16:40:38.267Z,1006.30
2018-01-15T16:42:30.453Z,1006.24
2018-01-15T16:43:30.464Z,1006.20
2018-01-15T16:45:22.644Z,1006.24
2018-01-15T16:46:22.644Z,1006.21
2018-01-15T16:48:14.840Z,1006.17
2018-01-15T16:49:14.828Z,1006.13
2018-01-15T16:51:08.725Z,1006.15
2018-01-15T16:52:08.040Z,1006.04
2018-01-15T16:54:00.240Z,1005.97
2018-01-15T16:55:00.246Z,1006.04
2018-01-15T16:56:52.414Z,1005.98
2018-01-15T16:57:52.432Z,1005.95
2018-01-15T16:59:44.553Z,1005.86
2018-01-15T17:00:44.583Z,1005.86
2018-01-15T17:02:36.804Z,1005.79
2018-01-15T17:03:36.808Z,1005.79
2018-01-15T17:05:30.000Z,1005.80
2018-01-15T17:06:30.005Z,1005.77
2018-01-15T17:08:38.603Z,1005.68
2018-01-15T17:09:38.548Z,1005.67
2018-01-15T17:11:31.709Z,1005.65
2018-01-15T17:12:31.737Z,1005.68
2018-01-15T17:14:24.884Z,1005.57
2018-01-15T17:15:24.873Z,1005.51
2018-01-15T17:17:17.112Z,1005.45
2018-01-15T17:18:17.113Z,1005.40
2018-01-15T17:20:09.374Z,1005.36
2018-01-15T17:21:09.390Z,1005.32
2018-01-15T17:23:01.582Z,1005.24
2018-01-15T17:24:01.587Z,1005.25
2018-01-15T17:25:53.817Z,1005.22
2018-01-15T17:26:53.820Z,1005.23
2018-01-15T17:28:45.957Z,1005.18
2018-01-15T17:29:45.955Z,1005.19
2018-01-15T17:31:39.122Z,1005.10
2018-01-15T17:32:39.121Z,1005.13
2018-01-15T17:34:32.264Z,1005.04